sensor_id;sensor_type;location;lat;lon;timestamp;P1;durP1;ratioP1;P2;durP2;ratioP2
10333;SDS011;5212;47.892;16.406;2022-07-10T00:01:48;1.40;;;1.30;;
10333;SDS011;5212;47.892;16.406;2022-07-10T00:04:20;1.43;;;1.10;;
10333;SDS011;5212;47.892;16.406;2022-07-10T00:06:55;3.13;;;1.40;;
10333;SDS011;5212;47.892;16.406;2022-07-10T00:09:28;1.50;;;1.40;;
10333;SDS011;5212;47.892;16.406;2022-07-10T00:12:01;1.70;;;1.60;;
10333;SDS011;5212;47.892;16.406;2022-07-10T00:14:31;1.47;;;1.37;;
10333;SDS011;5212;47.892;16.406;2022-07-10T00:17:03;1.50;;;1.40;;
10333;SDS011;5212;47.892;16.406;2022-07-10T00:19:32;1.50;;;1.40;;
10333;SDS011;5212;47.892;16.406;2022-07-10T00:22:03;2.00;;;1.40;;
10333;SDS011;5212;47.892;16.406;2022-07-10T00:24:31;1.50;;;1.40;;
10333;SDS011;5212;47.892;16.406;2022-07-10T00:27:00;2.03;;;1.60;;
10333;SDS011;5212;47.892;16.406;2022-07-10T00:29:32;1.37;;;1.27;;
10333;SDS011;5212;47.892;16.406;2022-07-10T00:32:06;1.37;;;1.20;;
10333;SDS011;5212;47.892;16.406;2022-07-10T00:34:38;1.30;;;1.20;;
10333;SDS011;5212;47.892;16.406;2022-07-10T00:37:13;1.30;;;1.20;;
10333;SDS011;5212;47.892;16.406;2022-07-10T00:39:47;1.40;;;1.20;;
10333;SDS011;5212;47.892;16.406;2022-07-10T00:42:18;1.30;;;1.20;;
10333;SDS011;5212;47.892;16.406;2022-07-10T00:44:50;1.77;;;1.30;;
10333;SDS011;5212;47.892;16.406;2022-07-10T00:47:18;1.50;;;1.40;;
10333;SDS011;5212;47.892;16.406;2022-07-10T00:49:50;1.80;;;1.50;;
10333;SDS011;5212;47.892;16.406;2022-07-10T00:52:24;1.43;;;1.33;;
10333;SDS011;5212;47.892;16.406;2022-07-10T00:54:56;2.43;;;1.40;;
10333;SDS011;5212;47.892;16.406;2022-07-10T00:57:28;1.40;;;1.30;;
10333;SDS011;5212;47.892;16.406;2022-07-10T01:00:01;2.13;;;1.63;;
10333;SDS011;5212;47.892;16.406;2022-07-10T01:02:33;1.60;;;1.40;;
10333;SDS011;5212;47.892;16.406;2022-07-10T01:05:06;1.50;;;1.30;;
10333;SDS011;5212;47.892;16.406;2022-07-10T01:07:41;1.73;;;1.63;;
10333;SDS011;5212;47.892;16.406;2022-07-10T01:10:13;1.50;;;1.40;;
10333;SDS011;5212;47.892;16.406;2022-07-10T01:12:45;3.07;;;1.60;;
10333;SDS011;5212;47.892;16.406;2022-07-10T01:15:16;1.70;;;1.60;;
10333;SDS011;5212;47.892;16.406;2022-07-10T01:17:48;1.70;;;1.60;;
10333;SDS011;5212;47.892;16.406;2022-07-10T01:20:20;1.87;;;1.53;;
10333;SDS011;5212;47.892;16.406;2022-07-10T01:22:52;1.60;;;1.50;;
10333;SDS011;5212;47.892;16.406;2022-07-10T01:25:20;1.80;;;1.70;;
10333;SDS011;5212;47.892;16.406;2022-07-10T01:27:48;3.33;;;1.80;;
10333;SDS011;5212;47.892;16.406;2022-07-10T01:30:20;2.30;;;1.73;;
10333;SDS011;5212;47.892;16.406;2022-07-10T01:32:52;1.90;;;1.70;;
10333;SDS011;5212;47.892;16.406;2022-07-10T01:35:24;2.13;;;1.93;;
10333;SDS011;5212;47.892;16.406;2022-07-10T01:37:57;2.10;;;1.93;;
10333;SDS011;5212;47.892;16.406;2022-07-10T01:40:26;2.33;;;1.83;;
10333;SDS011;5212;47.892;16.406;2022-07-10T01:42:55;2.23;;;1.77;;
10333;SDS011;5212;47.892;16.406;2022-07-10T01:45:24;2.80;;;1.80;;
10333;SDS011;5212;47.892;16.406;2022-07-10T01:47:55;1.67;;;1.50;;
10333;SDS011;5212;47.892;16.406;2022-07-10T01:50:27;1.70;;;1.60;;
10333;SDS011;5212;47.892;16.406;2022-07-10T01:53:00;1.97;;;1.70;;
10333;SDS011;5212;47.892;16.406;2022-07-10T01:55:31;2.07;;;1.80;;
10333;SDS011;5212;47.892;16.406;2022-07-10T01:58:00;1.97;;;1.70;;
10333;SDS011;5212;47.892;16.406;2022-07-10T02:00:30;2.23;;;1.60;;
10333;SDS011;5212;47.892;16.406;2022-07-10T02:03:02;1.60;;;1.50;;
10333;SDS011;5212;47.892;16.406;2022-07-10T02:05:48;2.50;;;1.60;;
10333;SDS011;5212;47.892;16.406;2022-07-10T02:08:23;1.53;;;1.43;;
10333;SDS011;5212;47.892;16.406;2022-07-10T02:10:53;2.00;;;1.80;;
10333;SDS011;5212;47.892;16.406;2022-07-10T02:13:26;1.90;;;1.70;;
10333;SDS011;5212;47.892;16.406;2022-07-10T02:15:56;1.67;;;1.53;;
10333;SDS011;5212;47.892;16.406;2022-07-10T02:18:26;1.60;;;1.50;;
10333;SDS011;5212;47.892;16.406;2022-07-10T02:20:59;1.87;;;1.77;;
10333;SDS011;5212;47.892;16.406;2022-07-10T02:23:35;2.30;;;2.00;;
10333;SDS011;5212;47.892;16.406;2022-07-10T02:26:06;1.97;;;1.77;;
10333;SDS011;5212;47.892;16.406;2022-07-10T02:28:35;2.10;;;1.90;;
10333;SDS011;5212;47.892;16.406;2022-07-10T02:31:06;4.03;;;2.10;;
10333;SDS011;5212;47.892;16.406;2022-07-10T02:33:34;2.30;;;2.10;;
10333;SDS011;5212;47.892;16.406;2022-07-10T02:36:03;2.20;;;1.90;;
10333;SDS011;5212;47.892;16.406;2022-07-10T02:38:31;1.83;;;1.70;;
10333;SDS011;5212;47.892;16.406;2022-07-10T02:41:01;2.10;;;1.90;;
10333;SDS011;5212;47.892;16.406;2022-07-10T02:43:28;2.10;;;1.90;;
10333;SDS011;5212;47.892;16.406;2022-07-10T02:45:56;2.23;;;2.03;;
10333;SDS011;5212;47.892;16.406;2022-07-10T02:48:27;2.20;;;2.00;;
10333;SDS011;5212;47.892;16.406;2022-07-10T02:50:55;2.00;;;1.80;;
10333;SDS011;5212;47.892;16.406;2022-07-10T02:53:27;2.00;;;1.80;;
10333;SDS011;5212;47.892;16.406;2022-07-10T02:56:00;1.77;;;1.67;;
10333;SDS011;5212;47.892;16.406;2022-07-10T02:58:28;2.30;;;1.83;;
10333;SDS011;5212;47.892;16.406;2022-07-10T03:00:59;1.90;;;1.80;;
10333;SDS011;5212;47.892;16.406;2022-07-10T03:03:26;2.03;;;1.83;;
10333;SDS011;5212;47.892;16.406;2022-07-10T03:05:54;1.90;;;1.80;;
10333;SDS011;5212;47.892;16.406;2022-07-10T03:08:22;2.53;;;1.97;;
10333;SDS011;5212;47.892;16.406;2022-07-10T03:10:53;2.30;;;2.00;;
10333;SDS011;5212;47.892;16.406;2022-07-10T03:13:22;2.10;;;1.90;;
10333;SDS011;5212;47.892;16.406;2022-07-10T03:15:53;2.10;;;1.90;;
10333;SDS011;5212;47.892;16.406;2022-07-10T03:18:24;2.20;;;2.00;;
10333;SDS011;5212;47.892;16.406;2022-07-10T03:20:52;2.30;;;2.10;;
10333;SDS011;5212;47.892;16.406;2022-07-10T03:23:23;1.80;;;1.70;;
10333;SDS011;5212;47.892;16.406;2022-07-10T03:25:58;3.20;;;1.90;;
10333;SDS011;5212;47.892;16.406;2022-07-10T03:28:32;1.77;;;1.67;;
10333;SDS011;5212;47.892;16.406;2022-07-10T03:31:03;2.00;;;1.80;;
10333;SDS011;5212;47.892;16.406;2022-07-10T03:33:36;2.37;;;1.90;;
10333;SDS011;5212;47.892;16.406;2022-07-10T03:36:06;2.17;;;1.97;;
10333;SDS011;5212;47.892;16.406;2022-07-10T03:38:34;2.40;;;2.10;;
10333;SDS011;5212;47.892;16.406;2022-07-10T03:41:05;1.80;;;1.70;;
10333;SDS011;5212;47.892;16.406;2022-07-10T03:43:41;1.87;;;1.70;;
10333;SDS011;5212;47.892;16.406;2022-07-10T03:46:11;1.80;;;1.47;;
10333;SDS011;5212;47.892;16.406;2022-07-10T03:48:40;2.00;;;1.80;;
10333;SDS011;5212;47.892;16.406;2022-07-10T03:51:13;2.00;;;1.90;;
10333;SDS011;5212;47.892;16.406;2022-07-10T03:53:46;2.23;;;1.90;;
10333;SDS011;5212;47.892;16.406;2022-07-10T03:56:17;1.80;;;1.70;;
10333;SDS011;5212;47.892;16.406;2022-07-10T03:59:05;2.10;;;1.87;;
10333;SDS011;5212;47.892;16.406;2022-07-10T04:01:38;2.57;;;2.03;;
10333;SDS011;5212;47.892;16.406;2022-07-10T04:04:09;1.83;;;1.70;;
10333;SDS011;5212;47.892;16.406;2022-07-10T04:06:40;2.13;;;1.93;;
10333;SDS011;5212;47.892;16.406;2022-07-10T04:09:13;1.93;;;1.83;;
10333;SDS011;5212;47.892;16.406;2022-07-10T04:11:44;1.70;;;1.60;;
10333;SDS011;5212;47.892;16.406;2022-07-10T04:14:15;2.00;;;1.70;;
10333;SDS011;5212;47.892;16.406;2022-07-10T04:16:43;2.17;;;1.97;;
10333;SDS011;5212;47.892;16.406;2022-07-10T04:19:15;1.90;;;1.70;;
10333;SDS011;5212;47.892;16.406;2022-07-10T04:21:47;1.90;;;1.80;;
10333;SDS011;5212;47.892;16.406;2022-07-10T04:24:20;2.60;;;1.80;;
10333;SDS011;5212;47.892;16.406;2022-07-10T04:26:52;3.30;;;1.70;;
10333;SDS011;5212;47.892;16.406;2022-07-10T04:29:29;2.33;;;2.13;;
10333;SDS011;5212;47.892;16.406;2022-07-10T04:32:01;4.20;;;2.00;;
10333;SDS011;5212;47.892;16.406;2022-07-10T04:34:34;3.33;;;2.20;;
10333;SDS011;5212;47.892;16.406;2022-07-10T04:37:05;2.77;;;2.20;;
10333;SDS011;5212;47.892;16.406;2022-07-10T04:39:37;2.40;;;1.70;;
10333;SDS011;5212;47.892;16.406;2022-07-10T04:42:09;2.53;;;2.23;;
10333;SDS011;5212;47.892;16.406;2022-07-10T04:44:43;2.10;;;1.90;;
10333;SDS011;5212;47.892;16.406;2022-07-10T04:47:15;2.33;;;2.13;;
10333;SDS011;5212;47.892;16.406;2022-07-10T04:49:48;2.47;;;2.27;;
10333;SDS011;5212;47.892;16.406;2022-07-10T04:52:21;2.50;;;2.30;;
10333;SDS011;5212;47.892;16.406;2022-07-10T04:54:53;2.30;;;1.90;;
10333;SDS011;5212;47.892;16.406;2022-07-10T04:57:25;2.53;;;2.33;;
10333;SDS011;5212;47.892;16.406;2022-07-10T04:59:59;2.63;;;2.43;;
10333;SDS011;5212;47.892;16.406;2022-07-10T05:02:28;3.17;;;2.30;;
10333;SDS011;5212;47.892;16.406;2022-07-10T05:05:00;2.20;;;2.00;;
10333;SDS011;5212;47.892;16.406;2022-07-10T05:07:31;2.13;;;1.90;;
10333;SDS011;5212;47.892;16.406;2022-07-10T05:10:01;2.40;;;2.20;;
10333;SDS011;5212;47.892;16.406;2022-07-10T05:12:33;2.70;;;2.50;;
10333;SDS011;5212;47.892;16.406;2022-07-10T05:15:09;2.77;;;2.47;;
10333;SDS011;5212;47.892;16.406;2022-07-10T05:17:41;2.40;;;2.20;;
10333;SDS011;5212;47.892;16.406;2022-07-10T05:20:10;2.27;;;1.97;;
10333;SDS011;5212;47.892;16.406;2022-07-10T05:22:42;2.83;;;2.20;;
10333;SDS011;5212;47.892;16.406;2022-07-10T05:25:14;2.40;;;2.10;;
10333;SDS011;5212;47.892;16.406;2022-07-10T05:27:42;2.60;;;2.30;;
10333;SDS011;5212;47.892;16.406;2022-07-10T05:30:16;3.20;;;1.93;;
10333;SDS011;5212;47.892;16.406;2022-07-10T05:32:49;2.77;;;2.27;;
10333;SDS011;5212;47.892;16.406;2022-07-10T05:35:20;2.40;;;2.20;;
10333;SDS011;5212;47.892;16.406;2022-07-10T05:37:48;3.50;;;2.20;;
10333;SDS011;5212;47.892;16.406;2022-07-10T05:40:18;2.70;;;2.20;;
10333;SDS011;5212;47.892;16.406;2022-07-10T05:42:46;2.70;;;2.50;;
10333;SDS011;5212;47.892;16.406;2022-07-10T05:45:16;3.03;;;2.10;;
10333;SDS011;5212;47.892;16.406;2022-07-10T05:47:44;2.50;;;2.23;;
10333;SDS011;5212;47.892;16.406;2022-07-10T05:50:12;2.30;;;2.10;;
10333;SDS011;5212;47.892;16.406;2022-07-10T05:52:39;2.67;;;2.23;;
10333;SDS011;5212;47.892;16.406;2022-07-10T05:55:08;2.57;;;2.30;;
10333;SDS011;5212;47.892;16.406;2022-07-10T05:57:40;2.20;;;2.00;;
10333;SDS011;5212;47.892;16.406;2022-07-10T06:00:13;2.97;;;2.13;;
10333;SDS011;5212;47.892;16.406;2022-07-10T06:02:46;3.17;;;2.87;;
10333;SDS011;5212;47.892;16.406;2022-07-10T06:05:13;2.80;;;2.60;;
10333;SDS011;5212;47.892;16.406;2022-07-10T06:07:42;2.47;;;2.27;;
10333;SDS011;5212;47.892;16.406;2022-07-10T06:10:10;3.73;;;2.20;;
10333;SDS011;5212;47.892;16.406;2022-07-10T06:12:38;3.30;;;2.47;;
10333;SDS011;5212;47.892;16.406;2022-07-10T06:15:06;3.23;;;2.63;;
10333;SDS011;5212;47.892;16.406;2022-07-10T06:17:36;4.93;;;2.50;;
10333;SDS011;5212;47.892;16.406;2022-07-10T06:20:05;2.60;;;2.40;;
10333;SDS011;5212;47.892;16.406;2022-07-10T06:22:37;2.90;;;2.40;;
10333;SDS011;5212;47.892;16.406;2022-07-10T06:25:09;2.87;;;2.50;;
10333;SDS011;5212;47.892;16.406;2022-07-10T06:27:44;2.60;;;2.40;;
10333;SDS011;5212;47.892;16.406;2022-07-10T06:30:16;3.70;;;2.10;;
10333;SDS011;5212;47.892;16.406;2022-07-10T06:32:52;2.40;;;2.20;;
10333;SDS011;5212;47.892;16.406;2022-07-10T06:35:26;2.70;;;2.30;;
10333;SDS011;5212;47.892;16.406;2022-07-10T06:37:58;2.80;;;2.30;;
10333;SDS011;5212;47.892;16.406;2022-07-10T06:40:30;3.10;;;2.30;;
10333;SDS011;5212;47.892;16.406;2022-07-10T06:43:06;2.23;;;2.03;;
10333;SDS011;5212;47.892;16.406;2022-07-10T06:45:35;2.20;;;2.00;;
10333;SDS011;5212;47.892;16.406;2022-07-10T06:48:07;3.50;;;2.20;;
10333;SDS011;5212;47.892;16.406;2022-07-10T06:50:33;2.37;;;2.07;;
10333;SDS011;5212;47.892;16.406;2022-07-10T06:53:02;2.43;;;2.20;;
10333;SDS011;5212;47.892;16.406;2022-07-10T06:55:36;2.60;;;2.37;;
10333;SDS011;5212;47.892;16.406;2022-07-10T06:58:06;2.57;;;2.37;;
10333;SDS011;5212;47.892;16.406;2022-07-10T07:00:38;2.40;;;2.20;;
10333;SDS011;5212;47.892;16.406;2022-07-10T07:03:12;2.83;;;2.20;;
10333;SDS011;5212;47.892;16.406;2022-07-10T07:05:43;2.30;;;2.10;;
10333;SDS011;5212;47.892;16.406;2022-07-10T07:08:15;2.60;;;2.40;;
10333;SDS011;5212;47.892;16.406;2022-07-10T07:10:47;2.47;;;2.20;;
10333;SDS011;5212;47.892;16.406;2022-07-10T07:13:18;2.30;;;2.10;;
10333;SDS011;5212;47.892;16.406;2022-07-10T07:15:45;3.40;;;2.57;;
10333;SDS011;5212;47.892;16.406;2022-07-10T07:18:24;2.13;;;2.03;;
10333;SDS011;5212;47.892;16.406;2022-07-10T07:20:57;4.40;;;2.63;;
10333;SDS011;5212;47.892;16.406;2022-07-10T07:23:42;3.60;;;2.53;;
10333;SDS011;5212;47.892;16.406;2022-07-10T07:26:10;2.33;;;2.13;;
10333;SDS011;5212;47.892;16.406;2022-07-10T07:28:38;3.90;;;2.70;;
10333;SDS011;5212;47.892;16.406;2022-07-10T07:31:09;2.83;;;2.40;;
10333;SDS011;5212;47.892;16.406;2022-07-10T07:33:44;2.70;;;2.40;;
10333;SDS011;5212;47.892;16.406;2022-07-10T07:36:11;2.60;;;2.40;;
10333;SDS011;5212;47.892;16.406;2022-07-10T07:38:39;2.87;;;2.20;;
10333;SDS011;5212;47.892;16.406;2022-07-10T07:41:06;2.40;;;2.20;;
10333;SDS011;5212;47.892;16.406;2022-07-10T07:43:34;7.43;;;2.57;;
10333;SDS011;5212;47.892;16.406;2022-07-10T07:46:02;2.90;;;2.27;;
10333;SDS011;5212;47.892;16.406;2022-07-10T07:48:35;3.20;;;2.40;;
10333;SDS011;5212;47.892;16.406;2022-07-10T07:51:09;2.40;;;2.20;;
10333;SDS011;5212;47.892;16.406;2022-07-10T07:53:37;3.60;;;2.10;;
10333;SDS011;5212;47.892;16.406;2022-07-10T07:56:05;2.73;;;2.40;;
10333;SDS011;5212;47.892;16.406;2022-07-10T07:58:36;2.63;;;2.40;;
10333;SDS011;5212;47.892;16.406;2022-07-10T08:01:05;2.50;;;2.30;;
10333;SDS011;5212;47.892;16.406;2022-07-10T08:03:32;2.80;;;2.23;;
10333;SDS011;5212;47.892;16.406;2022-07-10T08:06:00;2.87;;;2.00;;
10333;SDS011;5212;47.892;16.406;2022-07-10T08:08:31;2.30;;;1.70;;
10333;SDS011;5212;47.892;16.406;2022-07-10T08:11:02;2.43;;;1.90;;
10333;SDS011;5212;47.892;16.406;2022-07-10T08:13:34;2.57;;;1.93;;
10333;SDS011;5212;47.892;16.406;2022-07-10T08:16:02;2.33;;;2.10;;
10333;SDS011;5212;47.892;16.406;2022-07-10T08:18:31;2.80;;;2.00;;
10333;SDS011;5212;47.892;16.406;2022-07-10T08:20:59;2.77;;;2.00;;
10333;SDS011;5212;47.892;16.406;2022-07-10T08:23:33;2.73;;;2.40;;
10333;SDS011;5212;47.892;16.406;2022-07-10T08:26:01;2.60;;;2.40;;
10333;SDS011;5212;47.892;16.406;2022-07-10T08:28:32;2.37;;;2.10;;
10333;SDS011;5212;47.892;16.406;2022-07-10T08:30:59;3.43;;;2.47;;
10333;SDS011;5212;47.892;16.406;2022-07-10T08:33:28;2.23;;;2.03;;
10333;SDS011;5212;47.892;16.406;2022-07-10T08:35:55;2.40;;;2.20;;
10333;SDS011;5212;47.892;16.406;2022-07-10T08:38:25;2.77;;;2.53;;
10333;SDS011;5212;47.892;16.406;2022-07-10T08:40:55;3.17;;;2.87;;
10333;SDS011;5212;47.892;16.406;2022-07-10T08:43:23;3.47;;;2.53;;
10333;SDS011;5212;47.892;16.406;2022-07-10T08:45:52;3.33;;;2.57;;
10333;SDS011;5212;47.892;16.406;2022-07-10T08:48:21;5.90;;;3.07;;
10333;SDS011;5212;47.892;16.406;2022-07-10T08:50:51;2.77;;;2.50;;
10333;SDS011;5212;47.892;16.406;2022-07-10T08:53:23;2.90;;;2.60;;
10333;SDS011;5212;47.892;16.406;2022-07-10T08:55:58;2.90;;;2.60;;
10333;SDS011;5212;47.892;16.406;2022-07-10T08:58:26;2.80;;;2.50;;
10333;SDS011;5212;47.892;16.406;2022-07-10T09:00:54;2.73;;;2.20;;
10333;SDS011;5212;47.892;16.406;2022-07-10T09:03:24;3.70;;;2.60;;
10333;SDS011;5212;47.892;16.406;2022-07-10T09:05:53;2.80;;;2.40;;
10333;SDS011;5212;47.892;16.406;2022-07-10T09:08:23;2.73;;;2.30;;
10333;SDS011;5212;47.892;16.406;2022-07-10T09:10:53;2.90;;;2.60;;
10333;SDS011;5212;47.892;16.406;2022-07-10T09:13:28;3.60;;;2.43;;
10333;SDS011;5212;47.892;16.406;2022-07-10T09:16:01;2.40;;;2.20;;
10333;SDS011;5212;47.892;16.406;2022-07-10T09:18:35;3.53;;;2.43;;
10333;SDS011;5212;47.892;16.406;2022-07-10T09:21:07;4.00;;;2.47;;
10333;SDS011;5212;47.892;16.406;2022-07-10T09:23:40;3.23;;;2.70;;
10333;SDS011;5212;47.892;16.406;2022-07-10T09:26:15;2.80;;;2.37;;
10333;SDS011;5212;47.892;16.406;2022-07-10T09:28:48;2.50;;;2.30;;
10333;SDS011;5212;47.892;16.406;2022-07-10T09:31:48;4.60;;;2.30;;
10333;SDS011;5212;47.892;16.406;2022-07-10T09:34:36;2.30;;;2.10;;
10333;SDS011;5212;47.892;16.406;2022-07-10T09:37:18;3.10;;;2.00;;
10333;SDS011;5212;47.892;16.406;2022-07-10T09:39:56;2.57;;;2.10;;
10333;SDS011;5212;47.892;16.406;2022-07-10T09:42:32;3.03;;;2.23;;
10333;SDS011;5212;47.892;16.406;2022-07-10T09:47:54;2.23;;;2.03;;
10333;SDS011;5212;47.892;16.406;2022-07-10T09:50:30;2.30;;;2.10;;
10333;SDS011;5212;47.892;16.406;2022-07-10T09:53:03;2.23;;;1.90;;
10333;SDS011;5212;47.892;16.406;2022-07-10T09:55:36;2.80;;;1.90;;
10333;SDS011;5212;47.892;16.406;2022-07-10T09:58:11;3.23;;;1.67;;
10333;SDS011;5212;47.892;16.406;2022-07-10T10:00:41;1.93;;;1.70;;
10333;SDS011;5212;47.892;16.406;2022-07-10T10:03:14;2.00;;;1.80;;
10333;SDS011;5212;47.892;16.406;2022-07-10T10:05:46;1.77;;;1.63;;
10333;SDS011;5212;47.892;16.406;2022-07-10T10:08:24;2.17;;;1.70;;
10333;SDS011;5212;47.892;16.406;2022-07-10T10:10:56;1.73;;;1.50;;
10333;SDS011;5212;47.892;16.406;2022-07-10T10:13:30;2.27;;;1.30;;
10333;SDS011;5212;47.892;16.406;2022-07-10T10:16:02;1.53;;;1.40;;
10333;SDS011;5212;47.892;16.406;2022-07-10T10:18:34;1.50;;;1.10;;
10333;SDS011;5212;47.892;16.406;2022-07-10T10:21:27;1.20;;;1.10;;
10333;SDS011;5212;47.892;16.406;2022-07-10T10:23:56;1.50;;;1.33;;
10333;SDS011;5212;47.892;16.406;2022-07-10T10:26:31;2.13;;;1.50;;
10333;SDS011;5212;47.892;16.406;2022-07-10T10:29:06;1.07;;;0.97;;
10333;SDS011;5212;47.892;16.406;2022-07-10T10:31:37;1.47;;;1.20;;
10333;SDS011;5212;47.892;16.406;2022-07-10T10:34:08;1.20;;;1.10;;
10333;SDS011;5212;47.892;16.406;2022-07-10T10:36:46;1.40;;;1.20;;
10333;SDS011;5212;47.892;16.406;2022-07-10T10:39:18;2.07;;;1.30;;
10333;SDS011;5212;47.892;16.406;2022-07-10T10:41:50;1.53;;;1.20;;
10333;SDS011;5212;47.892;16.406;2022-07-10T10:44:22;1.50;;;1.20;;
10333;SDS011;5212;47.892;16.406;2022-07-10T10:47:04;1.93;;;1.37;;
10333;SDS011;5212;47.892;16.406;2022-07-10T10:49:51;2.43;;;1.40;;
10333;SDS011;5212;47.892;16.406;2022-07-10T10:52:27;2.20;;;1.40;;
10333;SDS011;5212;47.892;16.406;2022-07-10T10:55:02;1.40;;;1.30;;
10333;SDS011;5212;47.892;16.406;2022-07-10T10:57:43;1.87;;;1.40;;
10333;SDS011;5212;47.892;16.406;2022-07-10T11:00:33;2.27;;;1.50;;
10333;SDS011;5212;47.892;16.406;2022-07-10T11:03:14;2.40;;;1.60;;
10333;SDS011;5212;47.892;16.406;2022-07-10T11:05:45;1.97;;;1.60;;
10333;SDS011;5212;47.892;16.406;2022-07-10T11:08:35;2.70;;;2.00;;
10333;SDS011;5212;47.892;16.406;2022-07-10T11:14:14;3.23;;;2.60;;
10333;SDS011;5212;47.892;16.406;2022-07-10T11:16:48;3.43;;;2.60;;
10333;SDS011;5212;47.892;16.406;2022-07-10T11:19:22;2.43;;;1.70;;
10333;SDS011;5212;47.892;16.406;2022-07-10T11:21:56;2.93;;;2.63;;
10333;SDS011;5212;47.892;16.406;2022-07-10T11:24:39;4.73;;;2.40;;
10333;SDS011;5212;47.892;16.406;2022-07-10T11:30:06;2.70;;;1.80;;
10333;SDS011;5212;47.892;16.406;2022-07-10T11:32:41;3.47;;;2.20;;
10333;SDS011;5212;47.892;16.406;2022-07-10T11:35:10;2.37;;;1.90;;
10333;SDS011;5212;47.892;16.406;2022-07-10T11:37:48;3.37;;;2.13;;
10333;SDS011;5212;47.892;16.406;2022-07-10T11:40:19;3.83;;;2.20;;
10333;SDS011;5212;47.892;16.406;2022-07-10T11:42:50;4.23;;;2.00;;
10333;SDS011;5212;47.892;16.406;2022-07-10T11:45:25;2.13;;;1.93;;
10333;SDS011;5212;47.892;16.406;2022-07-10T11:47:59;2.80;;;2.07;;
10333;SDS011;5212;47.892;16.406;2022-07-10T11:50:33;2.13;;;1.97;;
10333;SDS011;5212;47.892;16.406;2022-07-10T11:53:03;1.93;;;1.80;;
10333;SDS011;5212;47.892;16.406;2022-07-10T11:55:31;3.43;;;1.90;;
10333;SDS011;5212;47.892;16.406;2022-07-10T11:58:15;2.57;;;2.00;;
10333;SDS011;5212;47.892;16.406;2022-07-10T12:00:44;2.47;;;2.13;;
10333;SDS011;5212;47.892;16.406;2022-07-10T12:03:32;2.43;;;2.00;;
10333;SDS011;5212;47.892;16.406;2022-07-10T12:06:05;2.13;;;1.93;;
10333;SDS011;5212;47.892;16.406;2022-07-10T12:08:42;2.63;;;1.70;;
10333;SDS011;5212;47.892;16.406;2022-07-10T12:11:15;1.73;;;1.63;;
10333;SDS011;5212;47.892;16.406;2022-07-10T12:13:47;2.90;;;1.80;;
10333;SDS011;5212;47.892;16.406;2022-07-10T12:16:20;2.23;;;1.70;;
10333;SDS011;5212;47.892;16.406;2022-07-10T12:18:53;3.90;;;1.87;;
10333;SDS011;5212;47.892;16.406;2022-07-10T12:21:25;1.90;;;1.70;;
10333;SDS011;5212;47.892;16.406;2022-07-10T12:23:54;2.40;;;1.57;;
10333;SDS011;5212;47.892;16.406;2022-07-10T12:26:31;2.47;;;1.53;;
10333;SDS011;5212;47.892;16.406;2022-07-10T12:29:01;2.23;;;1.60;;
10333;SDS011;5212;47.892;16.406;2022-07-10T12:31:32;2.30;;;1.60;;
10333;SDS011;5212;47.892;16.406;2022-07-10T12:34:08;2.73;;;1.50;;
10333;SDS011;5212;47.892;16.406;2022-07-10T12:36:43;1.87;;;1.40;;
10333;SDS011;5212;47.892;16.406;2022-07-10T12:39:16;3.33;;;1.80;;
10333;SDS011;5212;47.892;16.406;2022-07-10T12:41:53;3.43;;;1.73;;
10333;SDS011;5212;47.892;16.406;2022-07-10T12:44:30;2.00;;;1.43;;
10333;SDS011;5212;47.892;16.406;2022-07-10T12:47:01;1.87;;;1.40;;
10333;SDS011;5212;47.892;16.406;2022-07-10T12:49:54;1.90;;;1.60;;
10333;SDS011;5212;47.892;16.406;2022-07-10T12:52:25;1.97;;;1.60;;
10333;SDS011;5212;47.892;16.406;2022-07-10T12:55:05;2.20;;;1.50;;
10333;SDS011;5212;47.892;16.406;2022-07-10T12:57:49;2.77;;;1.50;;
10333;SDS011;5212;47.892;16.406;2022-07-10T13:00:20;3.57;;;1.47;;
10333;SDS011;5212;47.892;16.406;2022-07-10T13:02:49;2.43;;;1.50;;
10333;SDS011;5212;47.892;16.406;2022-07-10T13:05:29;2.43;;;1.47;;
10333;SDS011;5212;47.892;16.406;2022-07-10T13:08:07;1.93;;;1.30;;
10333;SDS011;5212;47.892;16.406;2022-07-10T13:10:38;2.07;;;1.50;;
10333;SDS011;5212;47.892;16.406;2022-07-10T13:13:13;1.73;;;1.43;;
10333;SDS011;5212;47.892;16.406;2022-07-10T13:15:45;1.73;;;1.33;;
10333;SDS011;5212;47.892;16.406;2022-07-10T13:18:19;1.70;;;1.60;;
10333;SDS011;5212;47.892;16.406;2022-07-10T13:20:56;2.33;;;1.20;;
10333;SDS011;5212;47.892;16.406;2022-07-10T13:23:29;1.80;;;1.20;;
10333;SDS011;5212;47.892;16.406;2022-07-10T13:25:59;2.23;;;1.53;;
10333;SDS011;5212;47.892;16.406;2022-07-10T13:28:30;3.00;;;1.27;;
10333;SDS011;5212;47.892;16.406;2022-07-10T13:31:02;2.03;;;1.50;;
10333;SDS011;5212;47.892;16.406;2022-07-10T13:33:33;2.60;;;1.40;;
10333;SDS011;5212;47.892;16.406;2022-07-10T13:36:08;4.63;;;1.30;;
10333;SDS011;5212;47.892;16.406;2022-07-10T13:38:39;1.60;;;1.10;;
10333;SDS011;5212;47.892;16.406;2022-07-10T13:41:14;2.33;;;1.30;;
10333;SDS011;5212;47.892;16.406;2022-07-10T13:43:45;3.67;;;1.50;;
10333;SDS011;5212;47.892;16.406;2022-07-10T13:46:14;1.00;;;0.90;;
10333;SDS011;5212;47.892;16.406;2022-07-10T13:48:43;1.87;;;1.03;;
10333;SDS011;5212;47.892;16.406;2022-07-10T13:51:18;2.87;;;1.10;;
10333;SDS011;5212;47.892;16.406;2022-07-10T13:53:51;1.80;;;1.00;;
10333;SDS011;5212;47.892;16.406;2022-07-10T13:56:22;1.47;;;0.87;;
10333;SDS011;5212;47.892;16.406;2022-07-10T13:58:55;1.67;;;1.20;;
10333;SDS011;5212;47.892;16.406;2022-07-10T14:01:24;1.37;;;1.03;;
10333;SDS011;5212;47.892;16.406;2022-07-10T14:03:57;1.10;;;1.00;;
10333;SDS011;5212;47.892;16.406;2022-07-10T14:06:31;2.40;;;1.30;;
10333;SDS011;5212;47.892;16.406;2022-07-10T14:09:01;2.90;;;1.13;;
10333;SDS011;5212;47.892;16.406;2022-07-10T14:11:32;2.53;;;1.10;;
10333;SDS011;5212;47.892;16.406;2022-07-10T14:14:03;1.53;;;1.00;;
10333;SDS011;5212;47.892;16.406;2022-07-10T14:16:34;2.30;;;1.40;;
10333;SDS011;5212;47.892;16.406;2022-07-10T14:19:07;1.87;;;1.07;;
10333;SDS011;5212;47.892;16.406;2022-07-10T14:21:41;1.27;;;0.90;;
10333;SDS011;5212;47.892;16.406;2022-07-10T14:24:12;1.73;;;1.00;;
10333;SDS011;5212;47.892;16.406;2022-07-10T14:26:44;2.73;;;0.93;;
10333;SDS011;5212;47.892;16.406;2022-07-10T14:29:16;2.30;;;1.00;;
10333;SDS011;5212;47.892;16.406;2022-07-10T14:31:47;1.40;;;1.00;;
10333;SDS011;5212;47.892;16.406;2022-07-10T14:34:22;1.67;;;1.00;;
10333;SDS011;5212;47.892;16.406;2022-07-10T14:36:57;2.77;;;1.00;;
10333;SDS011;5212;47.892;16.406;2022-07-10T14:39:32;1.83;;;1.00;;
10333;SDS011;5212;47.892;16.406;2022-07-10T14:42:06;2.70;;;1.13;;
10333;SDS011;5212;47.892;16.406;2022-07-10T14:44:35;2.63;;;1.00;;
10333;SDS011;5212;47.892;16.406;2022-07-10T14:47:05;1.50;;;0.90;;
10333;SDS011;5212;47.892;16.406;2022-07-10T14:49:36;2.53;;;1.10;;
10333;SDS011;5212;47.892;16.406;2022-07-10T14:52:11;2.07;;;0.97;;
10333;SDS011;5212;47.892;16.406;2022-07-10T14:54:45;3.57;;;1.30;;
10333;SDS011;5212;47.892;16.406;2022-07-10T14:57:21;2.00;;;1.20;;
10333;SDS011;5212;47.892;16.406;2022-07-10T14:59:55;2.60;;;1.00;;
10333;SDS011;5212;47.892;16.406;2022-07-10T15:02:27;1.67;;;0.90;;
10333;SDS011;5212;47.892;16.406;2022-07-10T15:04:56;3.20;;;1.10;;
10333;SDS011;5212;47.892;16.406;2022-07-10T15:07:32;1.97;;;1.10;;
10333;SDS011;5212;47.892;16.406;2022-07-10T15:10:05;2.50;;;1.10;;
10333;SDS011;5212;47.892;16.406;2022-07-10T15:12:38;1.23;;;0.80;;
10333;SDS011;5212;47.892;16.406;2022-07-10T15:15:10;1.87;;;0.80;;
10333;SDS011;5212;47.892;16.406;2022-07-10T15:17:41;1.10;;;0.80;;
10333;SDS011;5212;47.892;16.406;2022-07-10T15:20:11;2.13;;;0.70;;
10333;SDS011;5212;47.892;16.406;2022-07-10T15:22:47;2.73;;;1.00;;
10333;SDS011;5212;47.892;16.406;2022-07-10T15:25:21;1.00;;;0.80;;
10333;SDS011;5212;47.892;16.406;2022-07-10T15:27:55;2.17;;;1.00;;